AZA202 LIRF-EGLL
Flight info
| Callsign | AZA202 |
|---|---|
| Flight time | 2h 3m |
| Altitude | 40000 |
| Route | NEMBO DCT GOVGO DCT SPEZI DCT OTMUV DCT AOSTA DCT ORSUD DCT MOLUS DCT GILIR DCT PENDU DCT IXILU DCT EPL DCT ROUSY DCT RITAX M624 BUB L608 LOGAN |
| Aircraft | MD11/H-SDE1E2E3FGHIJ2J3J4J5M1RWXY/LB1D1 |
Departure
| Time | 2026-05-04 10:51 |
|---|---|
| Airport | Rome–Fiumicino Leonardo da Vinci International Airport (LIRF) |
Arrival
| Time | 2026-05-04 12:54 |
|---|---|
| Airport | London Heathrow Airport (EGLL) |
| Time | Latitude | Longitude | Altitude | Speed | Heading |
|---|---|---|---|---|---|
| 2026-05-04 10:25 | 41.79859 | 12.24741 | 21 ft | 0 kts | 205° |
| 2026-05-04 10:39 | 41.79881 | 12.24754 | 21 ft | 4 kts | 204° |
| 2026-05-04 10:40 | 41.79904 | 12.24771 | 23 ft | 4 kts | 221° |
| 2026-05-04 10:40 | 41.79917 | 12.24797 | 24 ft | 4 kts | 254° |
| 2026-05-04 10:40 | 41.79920 | 12.24831 | 24 ft | 4 kts | 289° |
| 2026-05-04 10:40 | 41.79905 | 12.24858 | 23 ft | 4 kts | 330° |
| 2026-05-04 10:41 | 41.79881 | 12.24872 | 24 ft | 4 kts | 342° |
| 2026-05-04 10:41 | 41.79871 | 12.24876 | 24 ft | 0 kts | 340° |
| 2026-05-04 10:44 | 41.80198 | 12.24848 | 21 ft | 10 kts | 78° |
| 2026-05-04 10:45 | 41.80207 | 12.24964 | 21 ft | 15 kts | 90° |
| 2026-05-04 10:45 | 41.80224 | 12.25131 | 21 ft | 21 kts | 72° |
| 2026-05-04 10:45 | 41.80272 | 12.25312 | 22 ft | 18 kts | 69° |
| 2026-05-04 10:45 | 41.80316 | 12.25468 | 27 ft | 18 kts | 69° |
| 2026-05-04 10:46 | 41.80361 | 12.25631 | 26 ft | 19 kts | 70° |
| 2026-05-04 10:46 | 41.80408 | 12.25805 | 25 ft | 21 kts | 70° |
| 2026-05-04 10:46 | 41.80455 | 12.25973 | 22 ft | 17 kts | 69° |
| 2026-05-04 10:46 | 41.80496 | 12.26119 | 26 ft | 17 kts | 69° |
| 2026-05-04 10:47 | 41.80538 | 12.26274 | 28 ft | 18 kts | 70° |
| 2026-05-04 10:47 | 41.80587 | 12.26450 | 25 ft | 22 kts | 70° |
| 2026-05-04 10:47 | 41.80642 | 12.26650 | 26 ft | 16 kts | 70° |
| 2026-05-04 10:47 | 41.80687 | 12.26813 | 22 ft | 21 kts | 70° |
| 2026-05-04 10:49 | 41.80947 | 12.26878 | 22 ft | 0 kts | 247° |
| 2026-05-04 10:49 | 41.80944 | 12.26869 | 21 ft | 12 kts | 247° |
| 2026-05-04 10:50 | 41.80787 | 12.26310 | 30 ft | 116 kts | 250° |
| 2026-05-04 10:51 | 41.79097 | 12.12567 | 5991 ft | 266 kts | 265° |
| 2026-05-04 10:52 | 41.79044 | 12.10061 | 7210 ft | 271 kts | 266° |
| 2026-05-04 10:52 | 41.79027 | 12.07511 | 8373 ft | 276 kts | 267° |
| 2026-05-04 10:52 | 41.79021 | 12.04922 | 9510 ft | 281 kts | 267° |
| 2026-05-04 10:54 | 41.78972 | 11.82677 | 15370 ft | 365 kts | 268° |
| 2026-05-04 10:54 | 41.78957 | 11.79260 | 16205 ft | 370 kts | 268° |
| 2026-05-04 10:56 | 41.79810 | 11.54360 | 21307 ft | 399 kts | 293° |
| 2026-05-04 10:56 | 41.81276 | 11.51169 | 21961 ft | 406 kts | 305° |
| 2026-05-04 10:56 | 41.83108 | 11.48249 | 22649 ft | 411 kts | 310° |
| 2026-05-04 10:57 | 41.85066 | 11.45408 | 23275 ft | 417 kts | 311° |
| 2026-05-04 10:57 | 41.87056 | 11.42553 | 23947 ft | 421 kts | 310° |
| 2026-05-04 10:57 | 41.89053 | 11.39635 | 24607 ft | 424 kts | 310° |
| 2026-05-04 10:57 | 41.91025 | 11.36691 | 25282 ft | 426 kts | 309° |
| 2026-05-04 10:58 | 41.92997 | 11.33698 | 25966 ft | 428 kts | 309° |
| 2026-05-04 10:58 | 41.94964 | 11.30681 | 26653 ft | 431 kts | 309° |
| 2026-05-04 10:58 | 41.96933 | 11.27643 | 27382 ft | 432 kts | 308° |
| 2026-05-04 10:58 | 41.98910 | 11.24583 | 28095 ft | 434 kts | 308° |
| 2026-05-04 10:59 | 42.00894 | 11.21509 | 28769 ft | 436 kts | 308° |
| 2026-05-04 10:59 | 42.02885 | 11.18419 | 29436 ft | 439 kts | 308° |
| 2026-05-04 10:59 | 42.04891 | 11.15304 | 30078 ft | 442 kts | 308° |
| 2026-05-04 10:59 | 42.06910 | 11.12166 | 30589 ft | 444 kts | 308° |
| 2026-05-04 11:00 | 42.08943 | 11.09002 | 30970 ft | 450 kts | 308° |
| 2026-05-04 11:01 | 42.23096 | 10.86907 | 34854 ft | 438 kts | 307° |
| 2026-05-04 11:02 | 42.25076 | 10.83801 | 35329 ft | 435 kts | 307° |
| 2026-05-04 11:02 | 42.27096 | 10.80757 | 35792 ft | 435 kts | 311° |
| 2026-05-04 11:05 | 42.66559 | 10.59177 | 40115 ft | 442 kts | 334° |
| 2026-05-04 11:06 | 42.72354 | 10.56263 | 40155 ft | 446 kts | 334° |
| 2026-05-04 11:06 | 42.78208 | 10.53314 | 40151 ft | 449 kts | 334° |
| 2026-05-04 11:10 | 43.19063 | 10.31979 | 40146 ft | 444 kts | 322° |
| 2026-05-04 11:12 | 43.37303 | 10.09553 | 40135 ft | 441 kts | 314° |
| 2026-05-04 11:12 | 43.41878 | 10.03922 | 40139 ft | 442 kts | 314° |
| 2026-05-04 11:13 | 43.46472 | 9.98259 | 40138 ft | 443 kts | 314° |
| 2026-05-04 11:13 | 43.51051 | 9.92600 | 40135 ft | 443 kts | 314° |
| 2026-05-04 11:14 | 43.55633 | 9.86923 | 40135 ft | 443 kts | 314° |
| 2026-05-04 11:16 | 43.73999 | 9.64044 | 40130 ft | 446 kts | 314° |
| 2026-05-04 11:16 | 43.78584 | 9.58263 | 40135 ft | 445 kts | 313° |
| 2026-05-04 11:17 | 43.83090 | 9.52455 | 40146 ft | 445 kts | 313° |
| 2026-05-04 11:19 | 44.01310 | 9.28933 | 40135 ft | 448 kts | 313° |
| 2026-05-04 11:19 | 44.05873 | 9.23019 | 40144 ft | 448 kts | 313° |
| 2026-05-04 11:20 | 44.10447 | 9.17075 | 40143 ft | 450 kts | 313° |
| 2026-05-04 11:20 | 44.15015 | 9.11128 | 40141 ft | 450 kts | 313° |
| 2026-05-04 11:22 | 44.35114 | 8.89817 | 40160 ft | 456 kts | 319° |
| 2026-05-04 11:23 | 44.40211 | 8.84520 | 40158 ft | 456 kts | 319° |
| 2026-05-04 11:25 | 44.57152 | 8.66814 | 40144 ft | 457 kts | 319° |
| 2026-05-04 11:25 | 44.62241 | 8.61470 | 40135 ft | 457 kts | 319° |
| 2026-05-04 11:27 | 44.85095 | 8.37304 | 40120 ft | 458 kts | 319° |
| 2026-05-04 11:28 | 44.90177 | 8.31861 | 40113 ft | 459 kts | 319° |
| 2026-05-04 11:28 | 44.95285 | 8.26402 | 40110 ft | 460 kts | 319° |
| 2026-05-04 11:29 | 45.00392 | 8.20947 | 40112 ft | 460 kts | 319° |
| 2026-05-04 11:29 | 45.05497 | 8.15483 | 40112 ft | 460 kts | 319° |
| 2026-05-04 11:33 | 45.41297 | 7.76800 | 40146 ft | 464 kts | 319° |
| 2026-05-04 11:33 | 45.46426 | 7.71209 | 40137 ft | 464 kts | 319° |
| 2026-05-04 11:34 | 45.51540 | 7.65597 | 40141 ft | 464 kts | 318° |
| 2026-05-04 11:34 | 45.56662 | 7.59943 | 40146 ft | 466 kts | 319° |
| 2026-05-04 11:35 | 45.61761 | 7.54327 | 40145 ft | 466 kts | 319° |
| 2026-05-04 11:35 | 45.66897 | 7.48672 | 40146 ft | 466 kts | 319° |
| 2026-05-04 11:36 | 45.72035 | 7.43003 | 40132 ft | 466 kts | 319° |
| 2026-05-04 11:36 | 45.77174 | 7.37318 | 40132 ft | 468 kts | 319° |
| 2026-05-04 11:37 | 45.82396 | 7.31725 | 40129 ft | 469 kts | 321° |
| 2026-05-04 11:37 | 45.87725 | 7.26304 | 40121 ft | 469 kts | 322° |
| 2026-05-04 11:38 | 45.93072 | 7.20897 | 40109 ft | 469 kts | 321° |
| 2026-05-04 11:38 | 45.98387 | 7.15475 | 40057 ft | 470 kts | 321° |
| 2026-05-04 11:39 | 46.03711 | 7.10004 | 40040 ft | 470 kts | 321° |
| 2026-05-04 11:41 | 46.22303 | 6.90810 | 40029 ft | 471 kts | 321° |
| 2026-05-04 11:41 | 46.27630 | 6.85281 | 40042 ft | 471 kts | 321° |
| 2026-05-04 11:42 | 46.32960 | 6.79738 | 40032 ft | 472 kts | 320° |
| 2026-05-04 11:42 | 46.38285 | 6.74185 | 40039 ft | 472 kts | 320° |
| 2026-05-04 11:43 | 46.43672 | 6.68708 | 40036 ft | 474 kts | 325° |
| 2026-05-04 11:43 | 46.49523 | 6.64202 | 40035 ft | 477 kts | 330° |
| 2026-05-04 11:44 | 46.55537 | 6.60088 | 40028 ft | 478 kts | 331° |
| 2026-05-04 11:44 | 46.61499 | 6.55966 | 40030 ft | 477 kts | 330° |
| 2026-05-04 11:45 | 46.67473 | 6.51753 | 40026 ft | 477 kts | 330° |
| 2026-05-04 11:45 | 46.73450 | 6.47501 | 40034 ft | 478 kts | 330° |
| 2026-05-04 11:46 | 46.79432 | 6.43234 | 40036 ft | 479 kts | 330° |
| 2026-05-04 11:46 | 46.85418 | 6.38957 | 40024 ft | 479 kts | 330° |
| 2026-05-04 11:47 | 46.91415 | 6.34662 | 40015 ft | 479 kts | 330° |
| 2026-05-04 11:47 | 46.97358 | 6.30396 | 40013 ft | 479 kts | 330° |
| 2026-05-04 11:48 | 47.03345 | 6.26087 | 40016 ft | 479 kts | 330° |
| 2026-05-04 11:48 | 47.09350 | 6.21740 | 40010 ft | 480 kts | 330° |
| 2026-05-04 11:49 | 47.15340 | 6.17392 | 40018 ft | 481 kts | 330° |
| 2026-05-04 11:49 | 47.21260 | 6.13099 | 40012 ft | 482 kts | 330° |
| 2026-05-04 11:50 | 47.27277 | 6.08732 | 40018 ft | 482 kts | 330° |
| 2026-05-04 11:50 | 47.33340 | 6.04489 | 40003 ft | 485 kts | 335° |
| 2026-05-04 11:51 | 47.39972 | 6.02393 | 40015 ft | 493 kts | 355° |
| 2026-05-04 11:51 | 47.46861 | 6.02829 | 40024 ft | 497 kts | 2° |
| 2026-05-04 11:52 | 47.53763 | 6.03523 | 40024 ft | 497 kts | 0° |
| 2026-05-04 11:52 | 47.60666 | 6.03849 | 40023 ft | 496 kts | 358° |
| 2026-05-04 11:53 | 47.67557 | 6.04003 | 40021 ft | 495 kts | 358° |
| 2026-05-04 11:53 | 47.74427 | 6.04140 | 40021 ft | 495 kts | 358° |
| 2026-05-04 11:55 | 48.01967 | 6.04985 | 40019 ft | 496 kts | 358° |
| 2026-05-04 11:56 | 48.08873 | 6.05200 | 40021 ft | 496 kts | 359° |
| 2026-05-04 11:56 | 48.15725 | 6.05414 | 40019 ft | 495 kts | 359° |
| 2026-05-04 11:57 | 48.22620 | 6.05630 | 40021 ft | 495 kts | 359° |
| 2026-05-04 11:57 | 48.29518 | 6.05848 | 40025 ft | 495 kts | 359° |
| 2026-05-04 11:58 | 48.36407 | 6.06122 | 40021 ft | 495 kts | 359° |
| 2026-05-04 11:58 | 48.43298 | 6.06452 | 40019 ft | 495 kts | 359° |
| 2026-05-04 11:59 | 48.50178 | 6.06785 | 40024 ft | 494 kts | 359° |
| 2026-05-04 11:59 | 48.57042 | 6.07113 | 40021 ft | 494 kts | 359° |
| 2026-05-04 12:00 | 48.63880 | 6.07437 | 40021 ft | 495 kts | 359° |
| 2026-05-04 12:00 | 48.70766 | 6.07765 | 40020 ft | 495 kts | 359° |
| 2026-05-04 12:01 | 48.77652 | 6.08094 | 40021 ft | 495 kts | 359° |
| 2026-05-04 12:02 | 49.01703 | 6.09249 | 40020 ft | 493 kts | 359° |
| 2026-05-04 12:03 | 49.08570 | 6.09581 | 40016 ft | 493 kts | 359° |
| 2026-05-04 12:03 | 49.15418 | 6.09914 | 40017 ft | 493 kts | 359° |
| 2026-05-04 12:04 | 49.22237 | 6.10247 | 40005 ft | 493 kts | 359° |
| 2026-05-04 12:04 | 49.29086 | 6.10582 | 40006 ft | 493 kts | 359° |
| 2026-05-04 12:05 | 49.35956 | 6.10918 | 40009 ft | 493 kts | 359° |
| 2026-05-04 12:05 | 49.42799 | 6.11254 | 40018 ft | 492 kts | 359° |
| 2026-05-04 12:06 | 49.49598 | 6.10817 | 40016 ft | 486 kts | 345° |
| 2026-05-04 12:06 | 49.56036 | 6.07822 | 40021 ft | 482 kts | 336° |
| 2026-05-04 12:07 | 49.62336 | 6.04245 | 40022 ft | 481 kts | 336° |
| 2026-05-04 12:07 | 49.68616 | 6.00859 | 40018 ft | 482 kts | 338° |
| 2026-05-04 12:08 | 49.74974 | 5.97571 | 40014 ft | 482 kts | 338° |
| 2026-05-04 12:08 | 49.81312 | 5.94320 | 40010 ft | 482 kts | 338° |
| 2026-05-04 12:09 | 49.87675 | 5.91044 | 40008 ft | 481 kts | 338° |
| 2026-05-04 12:09 | 49.93992 | 5.87776 | 40004 ft | 481 kts | 338° |
| 2026-05-04 12:10 | 50.00356 | 5.84472 | 40005 ft | 481 kts | 338° |
| 2026-05-04 12:10 | 50.06676 | 5.81013 | 40000 ft | 478 kts | 332° |
| 2026-05-04 12:11 | 50.09571 | 5.78550 | 40001 ft | 472 kts | 321° |
| 2026-05-04 12:11 | 50.11296 | 5.76506 | 40005 ft | 468 kts | 315° |
| 2026-05-04 12:11 | 50.15890 | 5.69390 | 40000 ft | 465 kts | 309° |
| 2026-05-04 12:12 | 50.20358 | 5.62092 | 39998 ft | 466 kts | 310° |
| 2026-05-04 12:12 | 50.24954 | 5.54932 | 39997 ft | 467 kts | 311° |
| 2026-05-04 12:14 | 50.43610 | 5.26455 | 40000 ft | 469 kts | 312° |
| 2026-05-04 12:15 | 50.48274 | 5.19281 | 40000 ft | 469 kts | 312° |
| 2026-05-04 12:15 | 50.52931 | 5.12096 | 40001 ft | 469 kts | 311° |
| 2026-05-04 12:16 | 50.57597 | 5.04874 | 40004 ft | 472 kts | 312° |
| 2026-05-04 12:16 | 50.62282 | 4.97603 | 40003 ft | 473 kts | 312° |
| 2026-05-04 12:17 | 50.66952 | 4.90321 | 39993 ft | 472 kts | 312° |
| 2026-05-04 12:17 | 50.71582 | 4.83052 | 39991 ft | 472 kts | 312° |
| 2026-05-04 12:18 | 50.76243 | 4.75748 | 39990 ft | 473 kts | 312° |
| 2026-05-04 12:18 | 50.80904 | 4.68427 | 39996 ft | 472 kts | 312° |
| 2026-05-04 12:19 | 50.85572 | 4.61079 | 39998 ft | 474 kts | 312° |
| 2026-05-04 12:19 | 50.90182 | 4.53626 | 39993 ft | 472 kts | 307° |
| 2026-05-04 12:20 | 50.93891 | 4.45109 | 39994 ft | 468 kts | 298° |
| 2026-05-04 12:20 | 50.97178 | 4.36190 | 39994 ft | 468 kts | 297° |
| 2026-05-04 12:21 | 51.00487 | 4.27265 | 39993 ft | 468 kts | 298° |
| 2026-05-04 12:21 | 51.03841 | 4.18394 | 39995 ft | 468 kts | 298° |
| 2026-05-04 12:22 | 51.07210 | 4.09520 | 39989 ft | 468 kts | 298° |
| 2026-05-04 12:22 | 51.10571 | 4.00641 | 39985 ft | 468 kts | 298° |
| 2026-05-04 12:23 | 51.13923 | 3.91747 | 39981 ft | 468 kts | 298° |
| 2026-05-04 12:23 | 51.17233 | 3.82934 | 39980 ft | 468 kts | 298° |
| 2026-05-04 12:24 | 51.20573 | 3.74005 | 39986 ft | 469 kts | 298° |
| 2026-05-04 12:24 | 51.23907 | 3.65044 | 39983 ft | 469 kts | 298° |
| 2026-05-04 12:25 | 51.27212 | 3.56045 | 39988 ft | 469 kts | 298° |
| 2026-05-04 12:25 | 51.30521 | 3.47058 | 39995 ft | 469 kts | 298° |
| 2026-05-04 12:26 | 51.33834 | 3.38065 | 40000 ft | 468 kts | 297° |
| 2026-05-04 12:26 | 51.36572 | 3.28713 | 40002 ft | 466 kts | 289° |
| 2026-05-04 12:27 | 51.38826 | 3.18976 | 40004 ft | 466 kts | 287° |
| 2026-05-04 12:27 | 51.41052 | 3.09201 | 40006 ft | 466 kts | 288° |
| 2026-05-04 12:28 | 51.43314 | 2.99459 | 40011 ft | 466 kts | 288° |
| 2026-05-04 12:28 | 51.45600 | 2.89707 | 39697 ft | 466 kts | 288° |
| 2026-05-04 12:29 | 51.46741 | 2.84835 | 39370 ft | 468 kts | 288° |
| 2026-05-04 12:29 | 51.47869 | 2.80010 | 38930 ft | 467 kts | 288° |
| 2026-05-04 12:29 | 51.49008 | 2.75128 | 38313 ft | 466 kts | 288° |
| 2026-05-04 12:29 | 51.50139 | 2.70268 | 37717 ft | 466 kts | 287° |
| 2026-05-04 12:30 | 51.51269 | 2.65398 | 37167 ft | 463 kts | 287° |
| 2026-05-04 12:30 | 51.52394 | 2.60541 | 36649 ft | 465 kts | 287° |
| 2026-05-04 12:30 | 51.53519 | 2.55665 | 36123 ft | 465 kts | 286° |
| 2026-05-04 12:30 | 51.54642 | 2.50782 | 35602 ft | 465 kts | 285° |
| 2026-05-04 12:31 | 51.55753 | 2.45894 | 35056 ft | 464 kts | 285° |
| 2026-05-04 12:31 | 51.56856 | 2.41031 | 34487 ft | 463 kts | 285° |
| 2026-05-04 12:31 | 51.57959 | 2.36161 | 33929 ft | 463 kts | 285° |
| 2026-05-04 12:31 | 51.59059 | 2.31306 | 33286 ft | 463 kts | 285° |
| 2026-05-04 12:32 | 51.60168 | 2.26419 | 32670 ft | 465 kts | 285° |
| 2026-05-04 12:32 | 51.62399 | 2.16584 | 31496 ft | 470 kts | 285° |
| 2026-05-04 12:32 | 51.63518 | 2.11636 | 30915 ft | 472 kts | 285° |
| 2026-05-04 12:33 | 51.64639 | 2.06646 | 30310 ft | 474 kts | 285° |
| 2026-05-04 12:33 | 51.65752 | 2.01672 | 29615 ft | 471 kts | 285° |
| 2026-05-04 12:33 | 51.66858 | 1.96726 | 28959 ft | 467 kts | 286° |
| 2026-05-04 12:33 | 51.67938 | 1.91894 | 28371 ft | 461 kts | 286° |
| 2026-05-04 12:34 | 51.69015 | 1.87060 | 27748 ft | 455 kts | 287° |
| 2026-05-04 12:34 | 51.70077 | 1.82289 | 27151 ft | 449 kts | 287° |
| 2026-05-04 12:34 | 51.71124 | 1.77571 | 26565 ft | 445 kts | 287° |
| 2026-05-04 12:34 | 51.72157 | 1.72904 | 26137 ft | 440 kts | 287° |
| 2026-05-04 12:35 | 51.73182 | 1.68260 | 25760 ft | 437 kts | 287° |
| 2026-05-04 12:35 | 51.74157 | 1.63633 | 25385 ft | 433 kts | 283° |
| 2026-05-04 12:35 | 51.74683 | 1.58871 | 24738 ft | 428 kts | 271° |
| 2026-05-04 12:35 | 51.74626 | 1.54126 | 23905 ft | 419 kts | 264° |
| 2026-05-04 12:36 | 51.74302 | 1.49492 | 23075 ft | 413 kts | 261° |
| 2026-05-04 12:36 | 51.73913 | 1.44974 | 22347 ft | 410 kts | 261° |
| 2026-05-04 12:36 | 51.73530 | 1.40428 | 21702 ft | 409 kts | 261° |
| 2026-05-04 12:36 | 51.73171 | 1.35829 | 21068 ft | 407 kts | 262° |
| 2026-05-04 12:37 | 51.72843 | 1.31306 | 20482 ft | 405 kts | 262° |
| 2026-05-04 12:37 | 51.72538 | 1.26870 | 19900 ft | 403 kts | 262° |
| 2026-05-04 12:37 | 51.72237 | 1.22384 | 19307 ft | 401 kts | 263° |
| 2026-05-04 12:37 | 51.71941 | 1.17924 | 18724 ft | 398 kts | 263° |
| 2026-05-04 12:38 | 51.71647 | 1.13493 | 18120 ft | 397 kts | 263° |
| 2026-05-04 12:38 | 51.71354 | 1.09079 | 17489 ft | 394 kts | 263° |
| 2026-05-04 12:38 | 51.71064 | 1.04757 | 17077 ft | 391 kts | 263° |
| 2026-05-04 12:38 | 51.70771 | 1.00410 | 16689 ft | 388 kts | 263° |
| 2026-05-04 12:39 | 51.70477 | 0.96099 | 16307 ft | 386 kts | 262° |
| 2026-05-04 12:39 | 51.70175 | 0.91813 | 15865 ft | 385 kts | 262° |
| 2026-05-04 12:39 | 51.69869 | 0.87541 | 15041 ft | 380 kts | 262° |
| 2026-05-04 12:39 | 51.69570 | 0.83337 | 14285 ft | 375 kts | 263° |
| 2026-05-04 12:40 | 51.69281 | 0.79252 | 13639 ft | 369 kts | 263° |
| 2026-05-04 12:40 | 51.68994 | 0.75189 | 13024 ft | 366 kts | 263° |
| 2026-05-04 12:40 | 51.68707 | 0.71112 | 12471 ft | 362 kts | 263° |
| 2026-05-04 12:40 | 51.68419 | 0.67087 | 12121 ft | 359 kts | 263° |
| 2026-05-04 12:41 | 51.68141 | 0.63221 | 12037 ft | 335 kts | 263° |
| 2026-05-04 12:41 | 51.67880 | 0.59598 | 11940 ft | 316 kts | 262° |
| 2026-05-04 12:41 | 51.67633 | 0.56178 | 11823 ft | 298 kts | 262° |
| 2026-05-04 12:41 | 51.67398 | 0.52917 | 11707 ft | 290 kts | 262° |
| 2026-05-04 12:42 | 51.67165 | 0.49713 | 11443 ft | 288 kts | 262° |
| 2026-05-04 12:42 | 51.66929 | 0.46500 | 10969 ft | 286 kts | 262° |
| 2026-05-04 12:42 | 51.66696 | 0.43335 | 10456 ft | 284 kts | 262° |
| 2026-05-04 12:42 | 51.66466 | 0.40218 | 10063 ft | 279 kts | 262° |
| 2026-05-04 12:43 | 51.66237 | 0.37107 | 9562 ft | 279 kts | 262° |
| 2026-05-04 12:43 | 51.66008 | 0.34007 | 9074 ft | 279 kts | 262° |
| 2026-05-04 12:43 | 51.65779 | 0.30906 | 8577 ft | 278 kts | 262° |
| 2026-05-04 12:43 | 51.65551 | 0.27826 | 8156 ft | 275 kts | 262° |
| 2026-05-04 12:44 | 51.65329 | 0.24833 | 7785 ft | 271 kts | 262° |
| 2026-05-04 12:44 | 51.65106 | 0.21836 | 7413 ft | 267 kts | 262° |
| 2026-05-04 12:44 | 51.64954 | 0.18911 | 7176 ft | 257 kts | 270° |
| 2026-05-04 12:44 | 51.65099 | 0.16111 | 7062 ft | 244 kts | 275° |
| 2026-05-04 12:45 | 51.65310 | 0.13454 | 7018 ft | 237 kts | 276° |
| 2026-05-04 12:45 | 51.65518 | 0.10814 | 7026 ft | 236 kts | 275° |
| 2026-05-04 12:45 | 51.65731 | 0.08197 | 7013 ft | 235 kts | 276° |
| 2026-05-04 12:45 | 51.65944 | 0.05579 | 7011 ft | 236 kts | 275° |
| 2026-05-04 12:46 | 51.65831 | 0.02980 | 7005 ft | 234 kts | 249° |
| 2026-05-04 12:46 | 51.64925 | 0.00867 | 7028 ft | 232 kts | 219° |
| 2026-05-04 12:46 | 51.63470 | -0.00179 | 7047 ft | 232 kts | 191° |
| 2026-05-04 12:46 | 51.61840 | -0.00464 | 7060 ft | 237 kts | 186° |
| 2026-05-04 12:47 | 51.60325 | -0.00647 | 7029 ft | 237 kts | 186° |
| 2026-05-04 12:47 | 51.58671 | -0.00839 | 6755 ft | 238 kts | 185° |
| 2026-05-04 12:47 | 51.57034 | -0.01039 | 6386 ft | 239 kts | 185° |
| 2026-05-04 12:47 | 51.55382 | -0.01253 | 6016 ft | 230 kts | 186° |
| 2026-05-04 12:48 | 51.53839 | -0.01460 | 5633 ft | 221 kts | 186° |
| 2026-05-04 12:48 | 51.52326 | -0.01668 | 5261 ft | 214 kts | 185° |
| 2026-05-04 12:48 | 51.50854 | -0.01886 | 4984 ft | 212 kts | 186° |
| 2026-05-04 12:48 | 51.49391 | -0.02109 | 4705 ft | 210 kts | 186° |
| 2026-05-04 12:49 | 51.47949 | -0.02489 | 4418 ft | 211 kts | 202° |
| 2026-05-04 12:49 | 51.46846 | -0.03959 | 4160 ft | 209 kts | 238° |
| 2026-05-04 12:49 | 51.46470 | -0.06187 | 3952 ft | 211 kts | 272° |
| 2026-05-04 12:49 | 51.46682 | -0.08515 | 3740 ft | 212 kts | 281° |
| 2026-05-04 12:50 | 51.46957 | -0.10834 | 3489 ft | 212 kts | 281° |
| 2026-05-04 12:50 | 51.47224 | -0.13160 | 3243 ft | 211 kts | 281° |
| 2026-05-04 12:50 | 51.47484 | -0.15480 | 3040 ft | 210 kts | 281° |
| 2026-05-04 12:50 | 51.47734 | -0.17795 | 3032 ft | 211 kts | 278° |
| 2026-05-04 12:51 | 51.47854 | -0.20105 | 2958 ft | 200 kts | 272° |
| 2026-05-04 12:51 | 51.47849 | -0.22270 | 2685 ft | 191 kts | 269° |
| 2026-05-04 12:51 | 51.47827 | -0.24381 | 2441 ft | 188 kts | 270° |
| 2026-05-04 12:51 | 51.47814 | -0.26492 | 2163 ft | 189 kts | 271° |
| 2026-05-04 12:52 | 51.47806 | -0.28559 | 1922 ft | 181 kts | 271° |
| 2026-05-04 12:52 | 51.47798 | -0.30445 | 1657 ft | 159 kts | 271° |
| 2026-05-04 12:52 | 51.47793 | -0.32188 | 1472 ft | 154 kts | 272° |
| 2026-05-04 12:52 | 51.47790 | -0.33900 | 1296 ft | 153 kts | 271° |
| 2026-05-04 12:53 | 51.47785 | -0.35606 | 1066 ft | 152 kts | 270° |
| 2026-05-04 12:53 | 51.47780 | -0.37309 | 868 ft | 152 kts | 271° |
| 2026-05-04 12:53 | 51.47776 | -0.38986 | 659 ft | 151 kts | 271° |
| 2026-05-04 12:53 | 51.47770 | -0.40667 | 450 ft | 151 kts | 271° |
| 2026-05-04 12:54 | 51.47769 | -0.42351 | 246 ft | 151 kts | 272° |
| 2026-05-04 12:54 | 51.47765 | -0.44024 | 95 ft | 144 kts | 272° |
| 2026-05-04 12:54 | 51.47763 | -0.45365 | 93 ft | 98 kts | 270° |
| 2026-05-04 12:54 | 51.47761 | -0.46202 | 97 ft | 46 kts | 269° |
| 2026-05-04 12:55 | 51.47739 | -0.46566 | 98 ft | 21 kts | 253° |
| 2026-05-04 12:55 | 51.47691 | -0.46757 | 97 ft | 20 kts | 245° |
| 2026-05-04 12:55 | 51.47646 | -0.46854 | 96 ft | 7 kts | 213° |
| 2026-05-04 12:55 | 51.47580 | -0.46908 | 96 ft | 10 kts | 204° |
| 2026-05-04 12:56 | 51.47510 | -0.46917 | 96 ft | 12 kts | 174° |
| 2026-05-04 12:56 | 51.47419 | -0.46887 | 96 ft | 16 kts | 167° |
| 2026-05-04 12:56 | 51.47313 | -0.46867 | 94 ft | 10 kts | 180° |
| 2026-05-04 12:56 | 51.47218 | -0.46869 | 95 ft | 17 kts | 180° |
| 2026-05-04 12:57 | 51.47107 | -0.46867 | 94 ft | 16 kts | 179° |
| 2026-05-04 12:57 | 51.46990 | -0.46863 | 94 ft | 18 kts | 179° |
| 2026-05-04 12:57 | 51.46897 | -0.46862 | 96 ft | 22 kts | 179° |
| 2026-05-04 12:57 | 51.46795 | -0.46861 | 96 ft | 11 kts | 180° |
| 2026-05-04 12:58 | 51.46699 | -0.46859 | 96 ft | 14 kts | 174° |
| 2026-05-04 12:58 | 51.46657 | -0.46774 | 98 ft | 11 kts | 88° |
| 2026-05-04 12:58 | 51.46658 | -0.46656 | 97 ft | 13 kts | 90° |
| 2026-05-04 12:58 | 51.46658 | -0.46464 | 97 ft | 21 kts | 90° |
| 2026-05-04 12:59 | 51.46660 | -0.46234 | 97 ft | 23 kts | 89° |
| 2026-05-04 12:59 | 51.46660 | -0.46015 | 97 ft | 16 kts | 96° |
| 2026-05-04 12:59 | 51.46616 | -0.45919 | 94 ft | 12 kts | 145° |
| 2026-05-04 12:59 | 51.46524 | -0.45817 | 96 ft | 20 kts | 145° |
| 2026-05-04 13:00 | 51.46421 | -0.45704 | 94 ft | 13 kts | 146° |
| 2026-05-04 13:00 | 51.46324 | -0.45598 | 98 ft | 21 kts | 146° |
| 2026-05-04 13:00 | 51.46186 | -0.45445 | 94 ft | 25 kts | 146° |
| 2026-05-04 13:00 | 51.46069 | -0.45329 | 94 ft | 18 kts | 162° |
| 2026-05-04 13:01 | 51.45956 | -0.45324 | 94 ft | 15 kts | 180° |
| 2026-05-04 13:01 | 51.45837 | -0.45328 | 94 ft | 16 kts | 182° |
| 2026-05-04 13:01 | 51.45724 | -0.45298 | 96 ft | 19 kts | 156° |
| 2026-05-04 13:01 | 51.45675 | -0.45156 | 94 ft | 16 kts | 92° |
| 2026-05-04 13:02 | 51.45683 | -0.45001 | 96 ft | 13 kts | 77° |
| 2026-05-04 13:02 | 51.45720 | -0.44890 | 96 ft | 14 kts | 59° |
| 2026-05-04 13:02 | 51.45732 | -0.44855 | 94 ft | 6 kts | 61° |
| 2026-05-04 13:02 | 51.45745 | -0.44827 | 96 ft | 4 kts | 47° |
| 2026-05-04 13:03 | 51.45770 | -0.44822 | 96 ft | 4 kts | 347° |
| 2026-05-04 13:03 | 51.45789 | -0.44836 | 97 ft | 4 kts | 332° |
| 2026-05-04 13:03 | 51.45799 | -0.44846 | 95 ft | 1 kts | 331° |
| 2026-05-04 13:03 | 51.45809 | -0.44855 | 96 ft | 1 kts | 330° |
| 2026-05-04 13:04 | 51.45814 | -0.44859 | 96 ft | 1 kts | 330° |